logo
Search for airport 
image banner adimage banner adimage banner ad
image banner ad

OMAA - Abu Dhabi / International

Located in Abu Dhabi, United Arab Emirates

ICAO - OMAA, IATA - AUH

Data provided by Airmate  

General information

Coordinates: N24°25'59" E54°39'4"
Elevation is 83 feet MSL.
 
View others Airports in Abu Dhabi Emirate

Operational data

Special qualification required
Current time UTC:
Current local time:
Weather
METAR: OMAA 200700Z 28004KT 180V330 CAVOK 30/12 Q1009 NOSIG
TAF: TAF OMAA 200500Z 2006/2112 21005KT 8000 NSC BECMG 2007/2009 33012KT BECMG 2017/2019 08005KT PROB30 2101/2104 4000 HZ BECMG 2109/2111 34011KT
View NOTAMs / SUP AIP / TFR affecting this airport [VIEW]
Communications frequencies: [VIEW]

Runways:

RWY identifierQFULength (ft)Width (ft)SurfaceLDA (ft)
13R128°13471197ASP
31L308°13471197ASP
13L128°13451197ASP
31R308°13451197ASP

Airport contact information

Address: Abu Dhabi United Arab Emirates

Satellite view of OMAA